LCLK Airport Information

Runway Information
Runway 04 Length 9776 ft width 148 ft
Elevation 11 ft Threshold 0 ft Heading 45
Runway 22 Length 9776 ft Width 148 ft
Elevation 6 ft Threshold 575 ft Heading 225
Airport Frequencies
Type APP Name APP Frequency 121.2 MHZ
Type ATIS Name ATIS Frequency 126.55 MHZ
Type TWR Name TWR Frequency 119.4 MHZ
Airport Navaids
Type VOR-DME Name Larnaca Frequency 112800 KHZ
Type NDB Name Larnaca Frequency 432 KHZ
Airport Weather Information & NOTAM
ADDS - METARS form results

(1934 UTC 17 November 2019)
Data provider http://aviationweather.gov/metar/data/
 
METAR text: LCLK 171930Z 34005KT 300V030 CAVOK 19/11 Q1020 NOSIG
Conditions at: LCLK (LARNACA/LARNAX A, CY) observed 1930 UTC 17 November 2019
Temperature: 19.0°C (66°F)
Dewpoint: 11.0°C (52°F) [RH = 60%]
Pressure (altimeter): 30.12 inches Hg (1020.0 mb)
Winds: from the NNW (340 degrees) at 6 MPH (5 knots; 2.6 m/s)
Visibility: 6 or more miles (10+ km)
Ceiling: ceiling and visibility are OK
Clouds: unknown
Weather: no significant weather observed at this time

METAR text: LCLK 171900Z 03009KT CAVOK 19/11 Q1020 NOSIG
Conditions at: LCLK (LARNACA/LARNAX A, CY) observed 1900 UTC 17 November 2019
Temperature: 19.0°C (66°F)
Dewpoint: 11.0°C (52°F) [RH = 60%]
Pressure (altimeter): 30.12 inches Hg (1020.0 mb)
Winds: from the NNE (30 degrees) at 10 MPH (9 knots; 4.6 m/s)
Visibility: 6 or more miles (10+ km)
Ceiling: ceiling and visibility are OK
Clouds: unknown
Weather: no significant weather observed at this time

Forecast for: LCLK (LARNACA/LARNAX A, CY)
Text: TAF LCLK 171730Z 1718/1818 05014KT CAVOK
Forecast period: 1800 UTC 17 November 2019 to 1800 UTC 18 November 2019
Forecast type: FROM: standard forecast or significant change
Winds: from the NE (50 degrees) at 16 MPH (14 knots; 7.2 m/s)
Visibility: 6 or more miles 10+ km)
Ceiling: unknown
Clouds: missing
Weather: NSW  (no significant weather)
Text: BECMG 1718/1721 35008KT
Forecast period: 1800 UTC 17 November 2019 to 0600 UTC 18 November 2019
Forecast type: BECOMING: Conditions expected to become as follows by 2100 UTC 17 November 2019
Winds: from the N (350 degrees) at 9 MPH (8 knots; 4.1 m/s)
Visibility: 6 or more miles 10+ km)
Ceiling: unknown
Clouds: missing
Weather: NSW  (no significant weather)
Text: BECMG 1806/1810 05015KT
Forecast period: 0600 to 1500 UTC 18 November 2019
Forecast type: BECOMING: Conditions expected to become as follows by 1000 UTC 18 November 2019
Winds: from the NE (50 degrees) at 17 MPH (15 knots; 7.7 m/s)
Visibility: 6 or more miles 10+ km)
Ceiling: unknown
Clouds: missing
Weather: NSW  (no significant weather)
Text: BECMG 1815/1818 35008KT
Forecast period: 1500 to 1800 UTC 18 November 2019
Forecast type: BECOMING: Conditions expected to become as follows by 1800 UTC 18 November 2019
Winds: from the N (350 degrees) at 9 MPH (8 knots; 4.1 m/s)
Visibility: 6 or more miles 10+ km)
Ceiling: unknown
Clouds: missing
Weather: NSW  (no significant weather)